Time;durP1;ratioP1;P1;durP2;ratioP2;P2;SDS_P1;SDS_P2;PMS_P1;PMS_P2;Temp;Humidity;BMP_temperature;BMP_pressure;BME280_temperature;BME280_humidity;BME280_pressure;Samples;Min_cycle;Max_cycle;Signal;HPM_P1;HPM_P2
2022/09/14 00:01:42;;;;;;;;;;;12.30;99.90;;;;;;5071101;28;19931;-68
2022/09/14 00:04:12;;;;;;;;;;;12.30;99.90;;;;;;5054394;28;19924;-68
2022/09/14 00:06:38;;;;;;;;;;;12.30;99.90;;;;;;5052167;28;19925;-68
2022/09/14 00:09:09;;;;;;;;;;;12.20;99.90;;;;;;5062617;28;19982;-68
2022/09/14 00:11:36;;;;;;;;;;;12.20;99.90;;;;;;5054650;28;19950;-69
2022/09/14 00:14:01;;;;;;;;;;;12.20;99.90;;;;;;5054261;28;20418;-68
2022/09/14 00:16:29;;;;;;;;;;;12.20;99.90;;;;;;5052727;28;19921;-69
2022/09/14 00:18:59;;;;;;;;;;;12.10;99.90;;;;;;5058196;28;19920;-68
2022/09/14 00:21:24;;;;;;;;;;;12.10;99.90;;;;;;5072024;28;19927;-69
2022/09/14 00:23:50;;;;;;;;;;;12.20;99.90;;;;;;5070093;28;19928;-68
2022/09/14 00:26:17;;;;;;;;;;;12.20;99.90;;;;;;5051511;28;19944;-68
2022/09/14 00:28:44;;;;;;;;;;;12.20;99.90;;;;;;5050755;28;19932;-68
2022/09/14 00:31:10;;;;;;;;;;;12.20;99.90;;;;;;5071105;28;19924;-68
2022/09/14 00:33:37;;;;;;;;;;;12.20;99.90;;;;;;5053809;28;20298;-69
2022/09/14 00:36:07;;;;;;;;;;;12.20;99.90;;;;;;5052301;28;19975;-69
2022/09/14 00:38:33;;;;;;;;;;;12.30;99.90;;;;;;5052849;28;19924;-69
2022/09/14 00:40:59;;;;;;;;;;;12.30;99.90;;;;;;5067817;28;19928;-69
2022/09/14 00:43:24;;;;;;;;;;;12.30;99.90;;;;;;5053422;28;19963;-68
2022/09/14 00:45:50;;;;;;;;;;;12.30;99.90;;;;;;5053572;28;19971;-69
2022/09/14 00:48:16;;;;;;;;;;;12.30;99.90;;;;;;5071807;28;20347;-68
2022/09/14 00:50:41;;;;;;;;;;;12.30;99.90;;;;;;5070748;28;19925;-68
2022/09/14 00:53:07;;;;;;;;;;;12.20;99.90;;;;;;5036804;28;19932;-68
2022/09/14 00:55:32;;;;;;;;;;;12.20;99.90;;;;;;5053363;28;19925;-69
2022/09/14 00:57:58;;;;;;;;;;;12.20;99.90;;;;;;5069804;28;19921;-69
2022/09/14 01:00:24;;;;;;;;;;;12.10;99.90;;;;;;5052669;28;20031;-68
2022/09/14 01:02:50;;;;;;;;;;;12.10;99.90;;;;;;5051855;28;19928;-69
2022/09/14 01:05:17;;;;;;;;;;;12.10;99.90;;;;;;5070592;28;19947;-69
2022/09/14 01:07:48;;;;;;;;;;;12.10;99.90;;;;;;5053556;28;19925;-69
2022/09/14 01:10:30;;;;;;;;;;;12.10;99.90;;;;;;5051420;28;19924;-69
2022/09/14 01:13:04;;;;;;;;;;;12.10;99.90;;;;;;5051813;28;19931;-68
2022/09/14 01:15:38;;;;;;;;;;;12.10;99.90;;;;;;5035754;28;19924;-68
2022/09/14 01:18:08;;;;;;;;;;;12.00;99.90;;;;;;5046587;28;19924;-69
2022/09/14 01:20:36;;;;;;;;;;;12.00;99.90;;;;;;5051469;28;19999;-69
2022/09/14 01:23:02;;;;;;;;;;;12.00;99.90;;;;;;5051573;28;19925;-69
2022/09/14 01:25:31;;;;;;;;;;;12.00;99.90;;;;;;5050530;28;19932;-69
2022/09/14 01:27:59;;;;;;;;;;;11.90;99.90;;;;;;5054949;28;19934;-69
2022/09/14 01:30:25;;;;;;;;;;;11.90;99.90;;;;;;5055339;28;20380;-69
2022/09/14 01:32:53;;;;;;;;;;;11.90;99.90;;;;;;5055575;28;19924;-68
2022/09/14 01:35:31;;;;;;;;;;;11.80;99.90;;;;;;5070302;28;19921;-68
2022/09/14 01:37:59;;;;;;;;;;;11.80;99.90;;;;;;5037221;28;20470;-69
2022/09/14 01:40:28;;;;;;;;;;;11.80;99.90;;;;;;5066844;28;19927;-68
2022/09/14 01:43:10;;;;;;;;;;;11.80;99.90;;;;;;5037508;28;19928;-69
2022/09/14 01:45:40;;;;;;;;;;;11.70;99.90;;;;;;5074760;28;19920;-68
2022/09/14 01:48:07;;;;;;;;;;;11.80;99.90;;;;;;5056012;28;19928;-68
2022/09/14 01:50:42;;;;;;;;;;;11.70;99.90;;;;;;5056017;28;20015;-69
2022/09/14 01:53:33;;;;;;;;;;;11.70;99.90;;;;;;5055678;28;20309;-68
2022/09/14 01:56:02;;;;;;;;;;;11.70;99.90;;;;;;5074897;28;19982;-68
2022/09/14 01:58:33;;;;;;;;;;;11.70;99.90;;;;;;5056417;28;19928;-68
2022/09/14 02:01:00;;;;;;;;;;;11.70;99.90;;;;;;5055549;28;20010;-68
2022/09/14 02:03:28;;;;;;;;;;;11.70;99.90;;;;;;5040129;28;19924;-68
2022/09/14 02:06:04;;;;;;;;;;;11.70;99.90;;;;;;5055340;28;19974;-68
2022/09/14 02:08:30;;;;;;;;;;;11.70;99.90;;;;;;5056497;28;19956;-69
2022/09/14 02:10:56;;;;;;;;;;;11.70;99.90;;;;;;5056677;28;19920;-69
2022/09/14 02:13:22;;;;;;;;;;;11.70;99.90;;;;;;5073530;28;19928;-69
2022/09/14 02:15:48;;;;;;;;;;;11.70;99.90;;;;;;5039629;28;19920;-69
2022/09/14 02:18:13;;;;;;;;;;;11.70;99.90;;;;;;5055961;28;19920;-69
2022/09/14 02:20:57;;;;;;;;;;;11.70;99.90;;;;;;5056747;28;20392;-69
2022/09/14 02:23:23;;;;;;;;;;;11.80;99.90;;;;;;5054759;28;20425;-69
2022/09/14 02:25:49;;;;;;;;;;;11.80;99.90;;;;;;5070897;28;20007;-69
2022/09/14 02:28:15;;;;;;;;;;;11.90;99.90;;;;;;5039398;28;19925;-68
2022/09/14 02:30:47;;;;;;;;;;;11.90;99.90;;;;;;5056014;28;19928;-68
2022/09/14 02:33:25;;;;;;;;;;;12.00;99.90;;;;;;5056269;28;20027;-69
2022/09/14 02:35:54;;;;;;;;;;;12.00;99.90;;;;;;5073907;28;20290;-69
2022/09/14 02:38:29;;;;;;;;;;;12.10;99.90;;;;;;5055228;28;20455;-69
2022/09/14 02:41:13;;;;;;;;;;;12.10;99.90;;;;;;5054456;28;19920;-69
2022/09/14 02:43:38;;;;;;;;;;;12.20;99.90;;;;;;5073470;28;20397;-70
2022/09/14 02:46:18;;;;;;;;;;;12.20;99.90;;;;;;5073395;28;20007;-69
2022/09/14 02:48:43;;;;;;;;;;;12.30;99.90;;;;;;5037913;28;19931;-69
2022/09/14 02:51:21;;;;;;;;;;;12.30;99.90;;;;;;5055845;28;19924;-69
2022/09/14 02:53:52;;;;;;;;;;;12.40;99.90;;;;;;5053952;28;19924;-69
2022/09/14 02:56:18;;;;;;;;;;;12.50;99.90;;;;;;5051903;28;19936;-69
2022/09/14 02:58:44;;;;;;;;;;;12.50;99.90;;;;;;5071400;28;19920;-69
2022/09/14 03:01:11;;;;;;;;;;;12.50;99.90;;;;;;5054823;28;19920;-68
2022/09/14 03:03:37;;;;;;;;;;;12.50;99.90;;;;;;5055569;28;19928;-69
2022/09/14 03:06:03;;;;;;;;;;;12.50;99.90;;;;;;5071981;28;20279;-69
2022/09/14 03:08:28;;;;;;;;;;;12.40;99.90;;;;;;5057043;28;19931;-69
2022/09/14 03:10:54;;;;;;;;;;;12.40;99.90;;;;;;5053610;28;20404;-68
2022/09/14 03:13:20;;;;;;;;;;;12.50;99.90;;;;;;5050818;28;19928;-69
2022/09/14 03:15:45;;;;;;;;;;;12.50;99.90;;;;;;5073079;28;19928;-69
2022/09/14 03:18:11;;;;;;;;;;;12.60;99.90;;;;;;5073164;28;19928;-69
2022/09/14 03:20:36;;;;;;;;;;;12.60;99.90;;;;;;5055507;28;20388;-69
2022/09/14 03:23:03;;;;;;;;;;;12.70;99.90;;;;;;5055314;28;19970;-69
2022/09/14 03:25:29;;;;;;;;;;;12.70;99.90;;;;;;5070067;28;19970;-69
2022/09/14 03:27:57;;;;;;;;;;;12.70;99.90;;;;;;5053132;28;19924;-69
2022/09/14 03:30:23;;;;;;;;;;;12.80;99.90;;;;;;5055112;28;19921;-69
2022/09/14 03:32:49;;;;;;;;;;;12.80;99.90;;;;;;5054677;28;19920;-69
2022/09/14 03:35:15;;;;;;;;;;;12.80;99.90;;;;;;5055161;28;19920;-69
2022/09/14 03:37:41;;;;;;;;;;;12.90;99.90;;;;;;5054241;28;20366;-69
2022/09/14 03:40:07;;;;;;;;;;;12.90;99.90;;;;;;5072699;28;19920;-69
2022/09/14 03:42:32;;;;;;;;;;;12.90;99.90;;;;;;5054442;28;19924;-69
2022/09/14 03:44:58;;;;;;;;;;;13.00;99.90;;;;;;5053848;28;20037;-69
2022/09/14 03:47:24;;;;;;;;;;;12.90;99.90;;;;;;5072405;28;19925;-69
2022/09/14 03:49:49;;;;;;;;;;;13.00;99.90;;;;;;5053908;28;19928;-69
2022/09/14 03:52:15;;;;;;;;;;;13.00;99.90;;;;;;5053401;28;19931;-69
2022/09/14 03:54:40;;;;;;;;;;;12.90;99.90;;;;;;5053573;28;19935;-69
2022/09/14 03:57:06;;;;;;;;;;;12.90;99.90;;;;;;5045895;28;20527;-69
2022/09/14 03:59:32;;;;;;;;;;;13.00;99.90;;;;;;5054411;28;19970;-69
2022/09/14 04:01:57;;;;;;;;;;;13.00;99.90;;;;;;5054406;28;19921;-68
2022/09/14 04:04:23;;;;;;;;;;;13.00;99.90;;;;;;5037932;28;19930;-68
2022/09/14 04:06:48;;;;;;;;;;;13.00;99.90;;;;;;5071619;28;19985;-69
2022/09/14 04:09:14;;;;;;;;;;;13.00;99.90;;;;;;5053132;28;19974;-69
2022/09/14 04:11:39;;;;;;;;;;;13.00;99.90;;;;;;5054318;28;20333;-69
2022/09/14 04:14:06;;;;;;;;;;;13.10;99.90;;;;;;5071031;28;19920;-68
2022/09/14 04:16:32;;;;;;;;;;;13.00;99.90;;;;;;5068487;28;19951;-69
2022/09/14 04:18:57;;;;;;;;;;;13.10;99.90;;;;;;5054142;28;20254;-69
2022/09/14 04:21:24;;;;;;;;;;;13.00;99.90;;;;;;5054386;28;19947;-69
2022/09/14 04:23:56;;;;;;;;;;;13.10;99.90;;;;;;5053759;28;19924;-69
2022/09/14 04:26:23;;;;;;;;;;;13.10;99.90;;;;;;5052817;28;20290;-69
2022/09/14 04:28:49;;;;;;;;;;;13.10;99.90;;;;;;5052831;28;19931;-68
2022/09/14 04:31:14;;;;;;;;;;;13.10;99.90;;;;;;5053764;28;19920;-70
2022/09/14 04:33:41;;;;;;;;;;;13.10;99.90;;;;;;5052274;28;20367;-70
2022/09/14 04:36:14;;;;;;;;;;;13.10;99.90;;;;;;5053731;28;19979;-69
2022/09/14 04:38:40;;;;;;;;;;;13.10;99.90;;;;;;5071959;28;20015;-69
2022/09/14 04:41:07;;;;;;;;;;;13.10;99.90;;;;;;5054038;28;20542;-69
2022/09/14 04:43:33;;;;;;;;;;;13.10;99.90;;;;;;5054151;28;20309;-69
2022/09/14 04:46:03;;;;;;;;;;;13.10;99.90;;;;;;5053372;28;19928;-68
2022/09/14 04:48:35;;;;;;;;;;;13.10;99.90;;;;;;5068059;28;20293;-69
2022/09/14 04:51:20;;;;;;;;;;;13.10;99.90;;;;;;5052255;28;19935;-68
2022/09/14 04:53:48;;;;;;;;;;;13.10;99.90;;;;;;5052725;28;19950;-69
2022/09/14 04:56:14;;;;;;;;;;;13.10;99.90;;;;;;5049243;28;19925;-69
2022/09/14 04:58:48;;;;;;;;;;;13.10;99.90;;;;;;5051182;28;19977;-69
2022/09/14 05:01:15;;;;;;;;;;;13.10;99.90;;;;;;5050901;28;20425;-69
2022/09/14 05:03:41;;;;;;;;;;;13.10;99.90;;;;;;5053192;28;19930;-68
2022/09/14 05:06:11;;;;;;;;;;;13.10;99.90;;;;;;5074665;28;20280;-69
2022/09/14 05:08:37;;;;;;;;;;;13.20;99.90;;;;;;5075181;28;19981;-68
2022/09/14 05:11:04;;;;;;;;;;;13.20;99.90;;;;;;5055658;28;20370;-67
2022/09/14 05:13:29;;;;;;;;;;;13.20;99.90;;;;;;5056198;28;20361;-67
2022/09/14 05:16:03;;;;;;;;;;;13.20;99.90;;;;;;5053768;28;19927;-67
2022/09/14 05:18:28;;;;;;;;;;;13.20;99.90;;;;;;5056441;28;19931;-67
2022/09/14 05:20:53;;;;;;;;;;;13.30;99.90;;;;;;5073209;28;20337;-68
2022/09/14 05:23:19;;;;;;;;;;;13.20;99.90;;;;;;5055942;28;19928;-67
2022/09/14 05:25:50;;;;;;;;;;;13.20;99.90;;;;;;5068110;28;19927;-66
2022/09/14 05:28:16;;;;;;;;;;;13.30;99.90;;;;;;5067005;28;19951;-67
2022/09/14 05:30:41;;;;;;;;;;;13.30;99.90;;;;;;5054529;28;19920;-67
2022/09/14 05:33:07;;;;;;;;;;;13.30;99.90;;;;;;5051771;28;19970;-67
2022/09/14 05:35:32;;;;;;;;;;;13.30;99.90;;;;;;5054117;28;20309;-66
2022/09/14 05:37:58;;;;;;;;;;;13.30;99.90;;;;;;5053646;28;19925;-67
2022/09/14 05:40:23;;;;;;;;;;;13.30;99.90;;;;;;5055497;28;19925;-67
2022/09/14 05:42:49;;;;;;;;;;;13.40;99.90;;;;;;5054598;28;20338;-66
2022/09/14 05:45:14;;;;;;;;;;;13.40;99.90;;;;;;5055828;28;20013;-67
2022/09/14 05:47:40;;;;;;;;;;;13.40;99.90;;;;;;5055834;28;20306;-67
2022/09/14 05:50:07;;;;;;;;;;;13.40;99.90;;;;;;5053770;28;20011;-67
2022/09/14 05:52:32;;;;;;;;;;;13.50;99.90;;;;;;5053756;28;19929;-68
2022/09/14 05:54:58;;;;;;;;;;;13.50;99.90;;;;;;5052357;28;19926;-67
2022/09/14 05:57:23;;;;;;;;;;;13.50;99.90;;;;;;5074322;28;19969;-68
2022/09/14 05:59:49;;;;;;;;;;;13.60;99.90;;;;;;5059015;28;19924;-68
2022/09/14 06:02:14;;;;;;;;;;;13.60;99.90;;;;;;5056584;28;19920;-67
2022/09/14 06:04:40;;;;;;;;;;;13.70;99.90;;;;;;5074710;28;20275;-67
2022/09/14 06:07:05;;;;;;;;;;;13.70;99.90;;;;;;5080128;28;19967;-67
2022/09/14 06:09:31;;;;;;;;;;;13.70;99.90;;;;;;5038334;28;19925;-67
2022/09/14 06:11:56;;;;;;;;;;;13.80;99.90;;;;;;5058809;28;19990;-68
2022/09/14 06:14:22;;;;;;;;;;;13.80;99.90;;;;;;5073467;28;19924;-68
2022/09/14 06:16:47;;;;;;;;;;;13.90;99.90;;;;;;5069920;28;20020;-67
2022/09/14 06:19:14;;;;;;;;;;;14.00;99.90;;;;;;5056195;28;20365;-67
2022/09/14 06:21:39;;;;;;;;;;;14.00;99.90;;;;;;5072969;28;19920;-68
2022/09/14 06:24:05;;;;;;;;;;;14.10;99.90;;;;;;5056012;28;19990;-68
2022/09/14 06:26:31;;;;;;;;;;;14.20;99.90;;;;;;5076566;28;20011;-68
2022/09/14 06:28:56;;;;;;;;;;;14.30;99.90;;;;;;5054108;28;19925;-68
2022/09/14 06:31:23;;;;;;;;;;;14.40;99.90;;;;;;5053530;28;19951;-68
2022/09/14 06:33:50;;;;;;;;;;;14.40;99.90;;;;;;5052395;28;20332;-67
2022/09/14 06:36:20;;;;;;;;;;;14.50;99.90;;;;;;5051015;28;19956;-68
2022/09/14 06:38:46;;;;;;;;;;;14.60;99.90;;;;;;5048420;28;20015;-69
2022/09/14 06:41:16;;;;;;;;;;;14.60;99.90;;;;;;5068107;28;19928;-68
2022/09/14 06:43:42;;;;;;;;;;;14.70;99.90;;;;;;5055739;28;19924;-68
2022/09/14 06:46:11;;;;;;;;;;;14.80;99.90;;;;;;5056652;28;19974;-68
2022/09/14 06:48:38;;;;;;;;;;;14.90;99.90;;;;;;5039098;28;19931;-69
2022/09/14 06:51:13;;;;;;;;;;;15.00;99.90;;;;;;5059623;28;20407;-70
2022/09/14 06:53:39;;;;;;;;;;;15.10;99.90;;;;;;5050790;28;20321;-69
2022/09/14 06:56:04;;;;;;;;;;;15.10;99.90;;;;;;5047874;28;19999;-68
2022/09/14 06:58:31;;;;;;;;;;;15.20;99.90;;;;;;5052887;28;19997;-68
2022/09/14 07:01:00;;;;;;;;;;;15.30;99.90;;;;;;5053048;28;20302;-68
2022/09/14 07:03:25;;;;;;;;;;;15.40;99.90;;;;;;5073589;28;19927;-68
2022/09/14 07:05:51;;;;;;;;;;;15.50;99.90;;;;;;5072681;28;19920;-69
2022/09/14 07:08:16;;;;;;;;;;;15.60;99.90;;;;;;5055262;28;19929;-68
2022/09/14 07:10:43;;;;;;;;;;;15.80;99.90;;;;;;5053825;28;19935;-69
2022/09/14 07:13:08;;;;;;;;;;;16.00;99.90;;;;;;5072110;28;20044;-68
2022/09/14 07:15:33;;;;;;;;;;;16.10;99.90;;;;;;5053750;28;20011;-68
2022/09/14 07:17:59;;;;;;;;;;;16.20;99.90;;;;;;5055141;28;19928;-68
2022/09/14 07:20:25;;;;;;;;;;;16.30;99.90;;;;;;5069848;28;19928;-68
2022/09/14 07:22:50;;;;;;;;;;;16.50;99.90;;;;;;5052113;28;20366;-68
2022/09/14 07:25:15;;;;;;;;;;;16.70;99.90;;;;;;5053286;28;19974;-69
2022/09/14 07:27:41;;;;;;;;;;;16.80;99.90;;;;;;5054782;28;20016;-69
2022/09/14 07:30:07;;;;;;;;;;;17.00;99.90;;;;;;5036218;28;19929;-70
2022/09/14 07:32:33;;;;;;;;;;;17.10;99.90;;;;;;5070605;28;19925;-69
2022/09/14 07:34:58;;;;;;;;;;;17.30;99.90;;;;;;5054734;28;20003;-69
2022/09/14 07:37:23;;;;;;;;;;;17.40;99.90;;;;;;5060817;28;19920;-69
2022/09/14 07:39:49;;;;;;;;;;;17.60;99.90;;;;;;5044817;28;20369;-68
2022/09/14 07:42:14;;;;;;;;;;;17.80;99.90;;;;;;5051625;28;19924;-69
2022/09/14 07:44:40;;;;;;;;;;;17.90;99.90;;;;;;5052197;28;19939;-69
2022/09/14 07:47:05;;;;;;;;;;;17.90;99.90;;;;;;5052080;28;19924;-69
2022/09/14 07:49:31;;;;;;;;;;;17.90;99.90;;;;;;5038262;28;19967;-69
2022/09/14 07:51:56;;;;;;;;;;;17.90;99.90;;;;;;5055379;28;19931;-69
2022/09/14 07:54:22;;;;;;;;;;;18.00;99.90;;;;;;5033869;28;19928;-68
2022/09/14 07:56:49;;;;;;;;;;;18.00;99.90;;;;;;5043758;28;20003;-68
2022/09/14 07:59:14;;;;;;;;;;;18.00;99.90;;;;;;5053963;28;19920;-68
2022/09/14 08:01:40;;;;;;;;;;;18.10;99.90;;;;;;5051791;28;19932;-68
2022/09/14 08:04:06;;;;;;;;;;;18.10;99.90;;;;;;5053312;28;19936;-68
2022/09/14 08:06:32;;;;;;;;;;;18.20;99.90;;;;;;5050863;28;19966;-69
2022/09/14 08:08:58;;;;;;;;;;;18.30;99.90;;;;;;5059155;22;19982;-68
2022/09/14 08:11:30;;;;;;;;;;;18.30;99.90;;;;;;5053213;28;20367;-68
2022/09/14 08:13:57;;;;;;;;;;;18.30;99.90;;;;;;5050516;28;19925;-68
2022/09/14 08:16:23;;;;;;;;;;;18.30;99.90;;;;;;5053204;28;19928;-68
2022/09/14 08:18:53;;;;;;;;;;;18.30;99.90;;;;;;5053569;28;19924;-69
2022/09/14 08:21:18;;;;;;;;;;;18.30;99.90;;;;;;5051934;28;19921;-69
2022/09/14 08:23:44;;;;;;;;;;;18.40;99.90;;;;;;5071771;28;19969;-69
2022/09/14 08:26:14;;;;;;;;;;;18.40;99.90;;;;;;5051909;28;19927;-68
2022/09/14 08:28:39;;;;;;;;;;;18.50;99.90;;;;;;5054224;28;19924;-69
2022/09/14 08:31:06;;;;;;;;;;;18.60;99.90;;;;;;5050539;28;20564;-69
2022/09/14 08:33:33;;;;;;;;;;;18.70;99.90;;;;;;5051658;28;20048;-69
2022/09/14 08:35:58;;;;;;;;;;;18.50;99.90;;;;;;5052103;28;19925;-69
2022/09/14 08:38:24;;;;;;;;;;;18.60;99.90;;;;;;5036607;28;20392;-69
2022/09/14 08:40:50;;;;;;;;;;;18.70;99.90;;;;;;5053786;28;20312;-69
2022/09/14 08:43:17;;;;;;;;;;;18.70;99.90;;;;;;5070857;28;19927;-70
2022/09/14 08:45:43;;;;;;;;;;;18.70;99.90;;;;;;5061367;28;19935;-70
2022/09/14 08:48:14;;;;;;;;;;;18.80;99.90;;;;;;5058533;28;20336;-68
2022/09/14 08:50:40;;;;;;;;;;;18.80;99.90;;;;;;5047588;28;19930;-68
2022/09/14 08:53:06;;;;;;;;;;;18.90;99.90;;;;;;5042473;28;19920;-67
2022/09/14 08:55:43;;;;;;;;;;;19.00;99.90;;;;;;5050664;28;20382;-67
2022/09/14 08:58:09;;;;;;;;;;;19.10;99.90;;;;;;5041118;28;19951;-68
2022/09/14 09:00:34;;;;;;;;;;;19.20;99.90;;;;;;5039304;28;19946;-67
2022/09/14 09:03:18;;;;;;;;;;;19.30;99.90;;;;;;5067520;28;19924;-69
2022/09/14 09:05:47;;;;;;;;;;;19.40;99.90;;;;;;5050449;28;20553;-68
2022/09/14 09:08:26;;;;;;;;;;;19.60;99.90;;;;;;5049261;28;19925;-68
2022/09/14 09:10:53;;;;;;;;;;;19.60;99.90;;;;;;5035245;28;19932;-67
2022/09/14 09:13:20;;;;;;;;;;;19.50;99.90;;;;;;5052188;28;19966;-68
2022/09/14 09:15:48;;;;;;;;;;;19.60;99.90;;;;;;5050942;28;19989;-68
2022/09/14 09:18:27;;;;;;;;;;;19.60;99.90;;;;;;5068305;28;20294;-69
2022/09/14 09:21:11;;;;;;;;;;;19.80;99.90;;;;;;5036826;28;19920;-68
2022/09/14 09:23:37;;;;;;;;;;;20.10;99.90;;;;;;5053170;28;20005;-68
2022/09/14 09:26:14;;;;;;;;;;;20.10;99.90;;;;;;5050944;28;19982;-68
2022/09/14 09:28:42;;;;;;;;;;;20.20;99.90;;;;;;5050647;28;19928;-68
2022/09/14 09:31:10;;;;;;;;;;;20.40;99.90;;;;;;5046603;28;19925;-69
2022/09/14 09:33:36;;;;;;;;;;;20.60;99.90;;;;;;5050814;28;20672;-68
2022/09/14 09:36:01;;;;;;;;;;;20.70;99.90;;;;;;5050947;28;19929;-68
2022/09/14 09:38:27;;;;;;;;;;;20.80;99.00;;;;;;5052931;28;19920;-67
2022/09/14 09:40:55;;;;;;;;;;;20.90;99.70;;;;;;5070486;28;20022;-68
2022/09/14 09:43:20;;;;;;;;;;;20.90;99.10;;;;;;5035586;28;21682;-68
2022/09/14 09:45:50;;;;;;;;;;;20.90;99.70;;;;;;5049779;28;19920;-68
2022/09/14 09:48:17;;;;;;;;;;;21.00;99.60;;;;;;5032129;28;20344;-68
2022/09/14 09:51:09;;;;;;;;;;;21.00;99.90;;;;;;5054985;28;19968;-68
2022/09/14 09:53:36;;;;;;;;;;;21.10;99.60;;;;;;5034780;28;19924;-68
2022/09/14 09:56:03;;;;;;;;;;;21.10;98.70;;;;;;5056437;28;20349;-68
2022/09/14 09:58:30;;;;;;;;;;;21.20;98.10;;;;;;5055582;28;20396;-67
2022/09/14 10:01:00;;;;;;;;;;;21.20;98.30;;;;;;5053320;28;19921;-68
2022/09/14 10:03:31;;;;;;;;;;;21.30;98.70;;;;;;5056197;28;19999;-69
2022/09/14 10:06:01;;;;;;;;;;;21.40;98.60;;;;;;5042948;28;20440;-68
2022/09/14 10:08:27;;;;;;;;;;;21.60;98.00;;;;;;5019475;28;19925;-68
2022/09/14 10:10:52;;;;;;;;;;;21.60;97.60;;;;;;5054502;28;19920;-68
2022/09/14 10:13:27;;;;;;;;;;;21.70;97.70;;;;;;5056156;28;19920;-68
2022/09/14 10:15:53;;;;;;;;;;;21.80;97.60;;;;;;5055441;28;19924;-68
2022/09/14 10:18:19;;;;;;;;;;;21.30;94.20;;;;;;5073274;28;19928;-68
2022/09/14 10:20:44;;;;;;;;;;;20.90;94.70;;;;;;5053545;28;19964;-69
2022/09/14 10:23:14;;;;;;;;;;;21.30;95.80;;;;;;5051349;28;19958;-68
2022/09/14 10:25:39;;;;;;;;;;;21.50;95.70;;;;;;5056459;28;19963;-68
2022/09/14 10:28:17;;;;;;;;;;;21.40;95.50;;;;;;5055998;28;20398;-68
2022/09/14 10:30:48;;;;;;;;;;;21.50;95.90;;;;;;5046855;28;19924;-68
2022/09/14 10:33:14;;;;;;;;;;;21.50;95.90;;;;;;5058466;28;19964;-68
2022/09/14 10:35:39;;;;;;;;;;;21.50;93.60;;;;;;5050927;28;20015;-68
2022/09/14 10:38:24;;;;;;;;;;;21.50;94.70;;;;;;5054677;28;20019;-68
2022/09/14 10:40:55;;;;;;;;;;;21.70;95.30;;;;;;5052907;28;20397;-68
2022/09/14 10:43:33;;;;;;;;;;;21.70;93.90;;;;;;5054044;28;19921;-68
2022/09/14 10:46:01;;;;;;;;;;;21.70;93.40;;;;;;5058852;28;19950;-69
2022/09/14 10:48:27;;;;;;;;;;;22.00;92.00;;;;;;5052768;28;20003;-68
2022/09/14 10:51:12;;;;;;;;;;;22.30;93.20;;;;;;5035155;28;19924;-67
2022/09/14 10:53:53;;;;;;;;;;;22.50;93.50;;;;;;5055716;28;19981;-68
2022/09/14 10:56:22;;;;;;;;;;;22.50;92.00;;;;;;5055096;28;19970;-68
2022/09/14 10:58:55;;;;;;;;;;;22.50;93.50;;;;;;5050098;28;19969;-68
2022/09/14 11:01:21;;;;;;;;;;;22.60;92.80;;;;;;5052080;28;20020;-67
2022/09/14 11:03:49;;;;;;;;;;;22.80;91.70;;;;;;5035220;28;20003;-67
2022/09/14 11:06:34;;;;;;;;;;;22.30;89.50;;;;;;5047735;28;19982;-67
2022/09/14 11:09:01;;;;;;;;;;;22.00;91.10;;;;;;5057700;28;20007;-67
2022/09/14 11:11:36;;;;;;;;;;;22.00;92.60;;;;;;5058490;28;19926;-67
2022/09/14 11:14:20;;;;;;;;;;;22.00;92.40;;;;;;5070145;28;19950;-66
2022/09/14 11:16:49;;;;;;;;;;;21.30;91.60;;;;;;5053868;28;20487;-66
2022/09/14 11:19:33;;;;;;;;;;;21.20;91.40;;;;;;5066559;28;19978;-66
2022/09/14 11:21:59;;;;;;;;;;;21.40;92.40;;;;;;5068789;28;20561;-66
2022/09/14 11:24:32;;;;;;;;;;;21.60;93.10;;;;;;5069949;28;19952;-66
2022/09/14 11:27:03;;;;;;;;;;;21.60;91.40;;;;;;5072639;28;19934;-66
2022/09/14 11:29:33;;;;;;;;;;;21.30;90.90;;;;;;5053929;28;19924;-66
2022/09/14 11:31:58;;;;;;;;;;;21.10;91.70;;;;;;5072663;28;19921;-66
2022/09/14 11:34:29;;;;;;;;;;;21.20;92.60;;;;;;5069414;28;19925;-66
2022/09/14 11:36:57;;;;;;;;;;;21.00;91.80;;;;;;5072480;28;19927;-66
2022/09/14 11:39:25;;;;;;;;;;;21.00;92.00;;;;;;5065058;28;20353;-66
2022/09/14 11:42:01;;;;;;;;;;;21.10;93.30;;;;;;5065965;28;19921;-66
2022/09/14 11:44:30;;;;;;;;;;;21.10;93.10;;;;;;5054588;28;20003;-66
2022/09/14 11:46:59;;;;;;;;;;;21.10;93.50;;;;;;5071380;28;19931;-66
2022/09/14 11:49:27;;;;;;;;;;;21.10;94.00;;;;;;5072834;28;19920;-66
2022/09/14 11:52:02;;;;;;;;;;;21.10;94.30;;;;;;5054541;28;19920;-67
2022/09/14 11:54:28;;;;;;;;;;;20.90;93.80;;;;;;5072814;28;19920;-66
2022/09/14 11:56:58;;;;;;;;;;;20.90;94.50;;;;;;5068134;28;20454;-66
2022/09/14 11:59:39;;;;;;;;;;;20.90;94.50;;;;;;5069048;28;20011;-66
2022/09/14 12:02:23;;;;;;;;;;;21.00;95.00;;;;;;5054285;28;19920;-66
2022/09/14 12:05:04;;;;;;;;;;;21.00;94.70;;;;;;5054475;28;19920;-66
2022/09/14 12:07:33;;;;;;;;;;;21.00;94.50;;;;;;5054421;28;19924;-66
2022/09/14 12:10:18;;;;;;;;;;;20.90;93.90;;;;;;5037681;28;20306;-66
2022/09/14 12:12:57;;;;;;;;;;;21.00;94.50;;;;;;5050820;28;19925;-66
2022/09/14 12:15:26;;;;;;;;;;;20.80;94.00;;;;;;5071521;28;20269;-66
2022/09/14 12:18:03;;;;;;;;;;;21.00;94.50;;;;;;5054169;28;20546;-66
2022/09/14 12:20:39;;;;;;;;;;;20.90;94.90;;;;;;5072214;28;19931;-66
2022/09/14 12:23:20;;;;;;;;;;;20.60;94.00;;;;;;5052859;28;19921;-66
2022/09/14 12:26:04;;;;;;;;;;;20.60;94.50;;;;;;5048889;28;19928;-66
2022/09/14 12:28:38;;;;;;;;;;;20.60;95.30;;;;;;5055633;28;19921;-67
2022/09/14 12:31:04;;;;;;;;;;;20.60;95.40;;;;;;5063573;28;20011;-66
2022/09/14 12:33:29;;;;;;;;;;;20.60;95.10;;;;;;5071473;28;20113;-66
2022/09/14 12:36:11;;;;;;;;;;;20.60;95.50;;;;;;5051235;28;19973;-66
2022/09/14 12:38:36;;;;;;;;;;;20.70;95.30;;;;;;5034014;28;20359;-66
2022/09/14 12:41:11;;;;;;;;;;;20.70;94.30;;;;;;5055809;28;19928;-66
2022/09/14 12:43:40;;;;;;;;;;;20.80;93.90;;;;;;5045274;28;20017;-66
2022/09/14 12:46:08;;;;;;;;;;;21.00;94.60;;;;;;5055524;28;19928;-66
2022/09/14 12:48:54;;;;;;;;;;;21.30;94.80;;;;;;5069599;28;20344;-66
2022/09/14 12:51:26;;;;;;;;;;;21.40;93.90;;;;;;5071057;28;19924;-67
2022/09/14 12:53:57;;;;;;;;;;;21.60;94.10;;;;;;5071556;28;19931;-67
2022/09/14 12:56:33;;;;;;;;;;;21.60;91.70;;;;;;5071980;28;19920;-67
2022/09/14 12:59:02;;;;;;;;;;;21.80;93.70;;;;;;5053380;28;20391;-66
2022/09/14 13:01:34;;;;;;;;;;;21.70;92.60;;;;;;5051108;28;20018;-66
2022/09/14 13:04:01;;;;;;;;;;;21.70;93.00;;;;;;5069119;28;19945;-66
2022/09/14 13:06:32;;;;;;;;;;;21.80;92.00;;;;;;5071051;28;19924;-66
2022/09/14 13:08:58;;;;;;;;;;;21.80;92.20;;;;;;5062115;28;19924;-66
2022/09/14 13:11:27;;;;;;;;;;;22.00;92.80;;;;;;5052018;28;20279;-66
2022/09/14 13:13:54;;;;;;;;;;;22.00;93.00;;;;;;5061273;28;19920;-66
2022/09/14 13:16:26;;;;;;;;;;;22.00;91.80;;;;;;5068296;28;20366;-66
2022/09/14 13:18:58;;;;;;;;;;;22.00;93.30;;;;;;5052136;28;19924;-67
2022/09/14 13:21:23;;;;;;;;;;;22.00;93.80;;;;;;5068662;28;20428;-67
2022/09/14 13:23:49;;;;;;;;;;;22.10;93.70;;;;;;5053860;28;19928;-67
2022/09/14 13:26:25;;;;;;;;;;;21.60;90.80;;;;;;5074374;28;19929;-67
2022/09/14 13:28:52;;;;;;;;;;;21.90;91.20;;;;;;5042949;28;20394;-67
2022/09/14 13:31:24;;;;;;;;;;;22.10;91.00;;;;;;5086604;28;19978;-67
2022/09/14 13:33:51;;;;;;;;;;;22.20;93.00;;;;;;5077270;28;19925;-69
2022/09/14 13:36:25;;;;;;;;;;;22.00;92.60;;;;;;5073155;28;19924;-66
2022/09/14 13:38:51;;;;;;;;;;;22.10;93.30;;;;;;5047360;28;20017;-66
2022/09/14 13:41:18;;;;;;;;;;;22.10;93.30;;;;;;5071955;28;19931;-67
2022/09/14 13:43:46;;;;;;;;;;;22.10;93.20;;;;;;5056256;28;19999;-67
2022/09/14 13:46:11;;;;;;;;;;;22.00;92.80;;;;;;5073009;28;20628;-67
2022/09/14 13:48:41;;;;;;;;;;;21.90;91.50;;;;;;5052048;28;19928;-68
2022/09/14 13:51:07;;;;;;;;;;;21.70;91.30;;;;;;5072593;28;20309;-68
2022/09/14 13:53:36;;;;;;;;;;;21.50;91.30;;;;;;5070168;28;20031;-67
2022/09/14 13:56:14;;;;;;;;;;;21.50;92.40;;;;;;5045926;28;19921;-67
2022/09/14 13:58:40;;;;;;;;;;;21.50;93.40;;;;;;5055046;28;19931;-67
2022/09/14 14:01:05;;;;;;;;;;;21.50;93.90;;;;;;5056007;28;19924;-67
2022/09/14 14:03:37;;;;;;;;;;;21.40;93.70;;;;;;5063498;28;19925;-67
2022/09/14 14:06:15;;;;;;;;;;;21.40;94.30;;;;;;5054628;28;19928;-67
2022/09/14 14:08:41;;;;;;;;;;;21.40;93.40;;;;;;5042728;28;20404;-67
2022/09/14 14:11:06;;;;;;;;;;;21.30;93.40;;;;;;5071384;28;19924;-67
2022/09/14 14:13:33;;;;;;;;;;;21.10;93.10;;;;;;5055149;28;19928;-68
2022/09/14 14:16:17;;;;;;;;;;;20.90;92.80;;;;;;5054691;28;19920;-67
2022/09/14 14:18:54;;;;;;;;;;;20.90;94.10;;;;;;5048514;28;19928;-67
2022/09/14 14:21:23;;;;;;;;;;;21.10;93.20;;;;;;5064273;28;19975;-67
2022/09/14 14:24:12;;;;;;;;;;;21.20;93.90;;;;;;5054336;28;19932;-67
2022/09/14 14:26:37;;;;;;;;;;;21.10;93.70;;;;;;5045953;28;19963;-67